sensor_id;sensor_type;location;lat;lon;timestamp;pressure;altitude;pressure_sealevel;temperature;humidity
42591;BME280;28218;53.342;-6.216;2023-06-24T00:00:34;101750.69;;;20.30;100.00
42591;BME280;28218;53.342;-6.216;2023-06-24T00:03:04;101757.06;;;20.29;100.00
42591;BME280;28218;53.342;-6.216;2023-06-24T00:05:34;101757.47;;;20.26;100.00
42591;BME280;28218;53.342;-6.216;2023-06-24T00:08:03;101761.78;;;20.27;100.00
42591;BME280;28218;53.342;-6.216;2023-06-24T00:10:35;101747.81;;;20.25;100.00
42591;BME280;28218;53.342;-6.216;2023-06-24T00:13:04;101753.75;;;20.27;100.00
42591;BME280;28218;53.342;-6.216;2023-06-24T00:15:32;101759.13;;;20.20;100.00
42591;BME280;28218;53.342;-6.216;2023-06-24T00:18:01;101767.38;;;20.19;100.00
42591;BME280;28218;53.342;-6.216;2023-06-24T00:20:33;101768.38;;;20.17;100.00
42591;BME280;28218;53.342;-6.216;2023-06-24T00:23:02;101775.41;;;20.19;100.00
42591;BME280;28218;53.342;-6.216;2023-06-24T00:25:30;101777.44;;;20.16;100.00
42591;BME280;28218;53.342;-6.216;2023-06-24T00:28:00;101770.84;;;20.12;100.00
42591;BME280;28218;53.342;-6.216;2023-06-24T00:30:28;101773.13;;;20.15;100.00
42591;BME280;28218;53.342;-6.216;2023-06-24T00:32:57;101771.28;;;20.16;100.00
42591;BME280;28218;53.342;-6.216;2023-06-24T00:35:25;101774.56;;;20.18;100.00
42591;BME280;28218;53.342;-6.216;2023-06-24T00:37:53;101769.41;;;20.16;100.00
42591;BME280;28218;53.342;-6.216;2023-06-24T00:40:25;101763.25;;;20.16;100.00
42591;BME280;28218;53.342;-6.216;2023-06-24T00:42:54;101762.00;;;20.12;100.00
42591;BME280;28218;53.342;-6.216;2023-06-24T00:45:24;101776.22;;;20.12;100.00
42591;BME280;28218;53.342;-6.216;2023-06-24T00:47:52;101763.25;;;20.09;100.00
42591;BME280;28218;53.342;-6.216;2023-06-24T00:50:21;101773.53;;;20.12;100.00
42591;BME280;28218;53.342;-6.216;2023-06-24T00:52:50;101773.13;;;20.09;100.00
42591;BME280;28218;53.342;-6.216;2023-06-24T00:55:18;101774.56;;;20.11;100.00
42591;BME280;28218;53.342;-6.216;2023-06-24T00:57:49;101773.13;;;20.09;100.00
42591;BME280;28218;53.342;-6.216;2023-06-24T01:00:21;101779.09;;;20.11;100.00
42591;BME280;28218;53.342;-6.216;2023-06-24T01:02:51;101776.63;;;20.09;100.00
42591;BME280;28218;53.342;-6.216;2023-06-24T01:05:20;101776.00;;;20.07;100.00
42591;BME280;28218;53.342;-6.216;2023-06-24T01:07:51;101778.28;;;20.10;100.00
42591;BME280;28218;53.342;-6.216;2023-06-24T01:10:23;101777.25;;;20.11;100.00
42591;BME280;28218;53.342;-6.216;2023-06-24T01:12:53;101778.28;;;20.10;100.00
42591;BME280;28218;53.342;-6.216;2023-06-24T01:15:21;101775.78;;;20.09;100.00
42591;BME280;28218;53.342;-6.216;2023-06-24T01:17:56;101778.47;;;20.09;100.00
42591;BME280;28218;53.342;-6.216;2023-06-24T01:20:31;101772.28;;;20.08;100.00
42591;BME280;28218;53.342;-6.216;2023-06-24T01:26:19;101767.56;;;20.04;100.00
42591;BME280;28218;53.342;-6.216;2023-06-24T01:31:47;101777.03;;;20.06;100.00
42591;BME280;28218;53.342;-6.216;2023-06-24T01:34:24;101778.47;;;20.02;100.00
42591;BME280;28218;53.342;-6.216;2023-06-24T01:37:00;101775.78;;;20.02;100.00
42591;BME280;28218;53.342;-6.216;2023-06-24T01:39:34;101777.25;;;20.05;100.00
42591;BME280;28218;53.342;-6.216;2023-06-24T01:42:08;101770.44;;;20.02;100.00
42591;BME280;28218;53.342;-6.216;2023-06-24T01:44:40;101763.88;;;20.05;100.00
42591;BME280;28218;53.342;-6.216;2023-06-24T01:47:11;101762.84;;;20.06;100.00
42591;BME280;28218;53.342;-6.216;2023-06-24T01:49:42;101756.66;;;20.05;100.00
42591;BME280;28218;53.342;-6.216;2023-06-24T01:52:12;101754.19;;;20.04;100.00
42591;BME280;28218;53.342;-6.216;2023-06-24T01:54:41;101759.13;;;20.00;100.00
42591;BME280;28218;53.342;-6.216;2023-06-24T01:57:11;101766.34;;;20.00;100.00
42591;BME280;28218;53.342;-6.216;2023-06-24T01:59:41;101769.84;;;20.00;100.00
42591;BME280;28218;53.342;-6.216;2023-06-24T02:02:12;101772.91;;;19.97;100.00
42591;BME280;28218;53.342;-6.216;2023-06-24T02:04:42;101769.63;;;20.02;100.00
42591;BME280;28218;53.342;-6.216;2023-06-24T02:07:12;101761.59;;;20.02;100.00
42591;BME280;28218;53.342;-6.216;2023-06-24T02:09:43;101758.31;;;20.00;100.00
42591;BME280;28218;53.342;-6.216;2023-06-24T02:12:12;101755.66;;;20.00;100.00
42591;BME280;28218;53.342;-6.216;2023-06-24T02:14:41;101753.56;;;20.02;100.00
42591;BME280;28218;53.342;-6.216;2023-06-24T02:17:12;101758.94;;;20.02;100.00
42591;BME280;28218;53.342;-6.216;2023-06-24T02:19:41;101765.50;;;19.99;100.00
42591;BME280;28218;53.342;-6.216;2023-06-24T02:22:11;101758.31;;;20.00;100.00
42591;BME280;28218;53.342;-6.216;2023-06-24T02:24:41;101767.34;;;19.99;100.00
42591;BME280;28218;53.342;-6.216;2023-06-24T02:27:10;101764.28;;;19.95;100.00
42591;BME280;28218;53.342;-6.216;2023-06-24T02:29:39;101773.94;;;19.96;100.00
42591;BME280;28218;53.342;-6.216;2023-06-24T02:32:09;101766.09;;;19.95;100.00
42591;BME280;28218;53.342;-6.216;2023-06-24T02:34:39;101763.03;;;19.98;100.00
42591;BME280;28218;53.342;-6.216;2023-06-24T02:37:07;101767.16;;;20.00;100.00
42591;BME280;28218;53.342;-6.216;2023-06-24T02:39:35;101772.31;;;20.02;100.00
42591;BME280;28218;53.342;-6.216;2023-06-24T02:42:11;101768.59;;;20.03;100.00
42591;BME280;28218;53.342;-6.216;2023-06-24T02:44:40;101768.41;;;20.04;100.00
42591;BME280;28218;53.342;-6.216;2023-06-24T02:47:11;101764.69;;;20.05;100.00
42591;BME280;28218;53.342;-6.216;2023-06-24T02:49:43;101760.78;;;20.08;100.00
42591;BME280;28218;53.342;-6.216;2023-06-24T02:52:15;101755.41;;;20.08;100.00
42591;BME280;28218;53.342;-6.216;2023-06-24T02:54:44;101757.50;;;20.06;100.00
42591;BME280;28218;53.342;-6.216;2023-06-24T02:57:13;101754.59;;;20.07;100.00
42591;BME280;28218;53.342;-6.216;2023-06-24T02:59:42;101751.91;;;20.07;100.00
42591;BME280;28218;53.342;-6.216;2023-06-24T03:02:11;101749.25;;;20.07;100.00
42591;BME280;28218;53.342;-6.216;2023-06-24T03:04:41;101752.34;;;20.11;100.00
42591;BME280;28218;53.342;-6.216;2023-06-24T03:07:10;101748.22;;;20.15;100.00
42591;BME280;28218;53.342;-6.216;2023-06-24T03:09:40;101748.22;;;20.15;100.00
42591;BME280;28218;53.342;-6.216;2023-06-24T03:12:08;101755.22;;;20.16;100.00
42591;BME280;28218;53.342;-6.216;2023-06-24T03:14:37;101757.06;;;20.22;100.00
42591;BME280;28218;53.342;-6.216;2023-06-24T03:17:05;101760.16;;;20.26;100.00
42591;BME280;28218;53.342;-6.216;2023-06-24T03:19:34;101757.47;;;20.26;100.00
42591;BME280;28218;53.342;-6.216;2023-06-24T03:22:04;101755.41;;;20.28;100.00
42591;BME280;28218;53.342;-6.216;2023-06-24T03:24:32;101763.03;;;20.31;100.00
42591;BME280;28218;53.342;-6.216;2023-06-24T03:27:00;101758.31;;;20.33;100.00
42591;BME280;28218;53.342;-6.216;2023-06-24T03:29:28;101747.59;;;20.33;100.00
42591;BME280;28218;53.342;-6.216;2023-06-24T03:31:56;101760.97;;;20.33;100.00
42591;BME280;28218;53.342;-6.216;2023-06-24T03:34:25;101755.63;;;20.33;100.00
42591;BME280;28218;53.342;-6.216;2023-06-24T03:36:54;101749.25;;;20.34;100.00
42591;BME280;28218;53.342;-6.216;2023-06-24T03:39:25;101749.25;;;20.34;100.00
42591;BME280;28218;53.342;-6.216;2023-06-24T03:41:53;101749.25;;;20.34;100.00
42591;BME280;28218;53.342;-6.216;2023-06-24T03:44:21;101750.28;;;20.33;100.00
42591;BME280;28218;53.342;-6.216;2023-06-24T03:46:50;101759.53;;;20.30;100.00
42591;BME280;28218;53.342;-6.216;2023-06-24T03:49:18;101763.03;;;20.24;100.00
42591;BME280;28218;53.342;-6.216;2023-06-24T03:51:46;101765.09;;;20.22;100.00
42591;BME280;28218;53.342;-6.216;2023-06-24T03:54:14;101770.44;;;20.22;100.00
42591;BME280;28218;53.342;-6.216;2023-06-24T03:56:44;101773.13;;;20.22;100.00
42591;BME280;28218;53.342;-6.216;2023-06-24T03:59:12;101778.09;;;20.19;100.00
42591;BME280;28218;53.342;-6.216;2023-06-24T04:01:41;101783.00;;;20.22;100.00
42591;BME280;28218;53.342;-6.216;2023-06-24T04:04:09;101772.94;;;20.24;100.00
42591;BME280;28218;53.342;-6.216;2023-06-24T04:06:38;101777.25;;;20.25;100.00
42591;BME280;28218;53.342;-6.216;2023-06-24T04:09:06;101778.88;;;20.26;100.00
42591;BME280;28218;53.342;-6.216;2023-06-24T04:11:36;101778.47;;;20.22;100.00
42591;BME280;28218;53.342;-6.216;2023-06-24T04:14:06;101781.78;;;20.24;100.00
42591;BME280;28218;53.342;-6.216;2023-06-24T04:16:36;101772.28;;;20.22;100.00
42591;BME280;28218;53.342;-6.216;2023-06-24T04:19:04;101768.59;;;20.23;100.00
42591;BME280;28218;53.342;-6.216;2023-06-24T04:21:32;101773.13;;;20.22;100.00
42591;BME280;28218;53.342;-6.216;2023-06-24T04:24:01;101761.41;;;20.23;100.00
42591;BME280;28218;53.342;-6.216;2023-06-24T04:26:29;101777.25;;;20.25;100.00
42591;BME280;28218;53.342;-6.216;2023-06-24T04:28:58;101777.84;;;20.27;100.00
42591;BME280;28218;53.342;-6.216;2023-06-24T04:31:28;101777.03;;;20.33;100.00
42591;BME280;28218;53.342;-6.216;2023-06-24T04:33:56;101783.00;;;20.35;100.00
42591;BME280;28218;53.342;-6.216;2023-06-24T04:36:24;101780.31;;;20.35;100.00
42591;BME280;28218;53.342;-6.216;2023-06-24T04:38:52;101780.94;;;20.37;100.00
42591;BME280;28218;53.342;-6.216;2023-06-24T04:41:21;101779.69;;;20.39;100.00
42591;BME280;28218;53.342;-6.216;2023-06-24T04:43:49;101784.25;;;20.39;100.00
42591;BME280;28218;53.342;-6.216;2023-06-24T04:46:17;101785.28;;;20.38;100.00
42591;BME280;28218;53.342;-6.216;2023-06-24T04:48:47;101786.91;;;20.39;100.00
42591;BME280;28218;53.342;-6.216;2023-06-24T04:51:15;101789.59;;;20.39;100.00
42591;BME280;28218;53.342;-6.216;2023-06-24T04:53:44;101788.75;;;20.32;100.00
42591;BME280;28218;53.342;-6.216;2023-06-24T04:56:12;101798.44;;;20.26;100.00
42591;BME280;28218;53.342;-6.216;2023-06-24T04:58:40;101812.03;;;20.25;100.00
42591;BME280;28218;53.342;-6.216;2023-06-24T05:01:08;101814.28;;;20.21;100.00
42591;BME280;28218;53.342;-6.216;2023-06-24T05:03:37;101811.63;;;20.14;100.00
42591;BME280;28218;53.342;-6.216;2023-06-24T05:06:06;101822.94;;;20.16;100.00
42591;BME280;28218;53.342;-6.216;2023-06-24T05:08:35;101811.19;;;20.17;100.00
42591;BME280;28218;53.342;-6.216;2023-06-24T05:11:03;101813.91;;;20.24;100.00
42591;BME280;28218;53.342;-6.216;2023-06-24T05:13:32;101811.22;;;20.31;100.00
42591;BME280;28218;53.342;-6.216;2023-06-24T05:16:00;101812.66;;;20.47;100.00
42591;BME280;28218;53.342;-6.216;2023-06-24T05:18:28;101812.88;;;20.58;100.00
42591;BME280;28218;53.342;-6.216;2023-06-24T05:20:57;101810.41;;;20.57;100.00
42591;BME280;28218;53.342;-6.216;2023-06-24T05:23:27;101805.88;;;20.57;100.00
42591;BME280;28218;53.342;-6.216;2023-06-24T05:25:55;101800.72;;;20.56;100.00
42591;BME280;28218;53.342;-6.216;2023-06-24T05:28:23;101790.03;;;20.49;100.00
42591;BME280;28218;53.342;-6.216;2023-06-24T05:30:51;101785.69;;;20.48;100.00
42591;BME280;28218;53.342;-6.216;2023-06-24T05:33:19;101784.03;;;20.54;100.00
42591;BME280;28218;53.342;-6.216;2023-06-24T05:35:48;101777.94;;;21.05;100.00
42591;BME280;28218;53.342;-6.216;2023-06-24T05:38:17;101783.22;;;21.69;100.00
42591;BME280;28218;53.342;-6.216;2023-06-24T05:40:47;101781.94;;;22.35;100.00
42591;BME280;28218;53.342;-6.216;2023-06-24T05:43:15;101773.63;;;22.99;100.00
42591;BME280;28218;53.342;-6.216;2023-06-24T05:45:43;101765.56;;;23.47;100.00
42591;BME280;28218;53.342;-6.216;2023-06-24T05:48:12;101758.38;;;24.01;100.00
42591;BME280;28218;53.342;-6.216;2023-06-24T05:50:41;101755.81;;;24.41;100.00
42591;BME280;28218;53.342;-6.216;2023-06-24T05:53:09;101739.53;;;24.60;100.00
42591;BME280;28218;53.342;-6.216;2023-06-24T05:55:37;101744.91;;;24.71;100.00
42591;BME280;28218;53.342;-6.216;2023-06-24T05:58:07;101751.88;;;24.96;100.00
42591;BME280;28218;53.342;-6.216;2023-06-24T06:00:36;101759.13;;;25.07;100.00
42591;BME280;28218;53.342;-6.216;2023-06-24T06:03:04;101770.13;;;25.17;100.00
42591;BME280;28218;53.342;-6.216;2023-06-24T06:05:33;101767.56;;;25.39;100.00
42591;BME280;28218;53.342;-6.216;2023-06-24T06:08:02;101769.41;;;25.67;100.00
42591;BME280;28218;53.342;-6.216;2023-06-24T06:10:30;101771.50;;;25.77;100.00
42591;BME280;28218;53.342;-6.216;2023-06-24T06:12:59;101775.78;;;25.90;100.00
42591;BME280;28218;53.342;-6.216;2023-06-24T06:15:28;101785.03;;;25.94;100.00
42591;BME280;28218;53.342;-6.216;2023-06-24T06:17:57;101782.38;;;26.16;100.00
42591;BME280;28218;53.342;-6.216;2023-06-24T06:20:25;101781.75;;;26.25;100.00
42591;BME280;28218;53.342;-6.216;2023-06-24T06:22:53;101789.59;;;26.27;100.00
42591;BME280;28218;53.342;-6.216;2023-06-24T06:25:21;101790.97;;;26.30;100.00
42591;BME280;28218;53.342;-6.216;2023-06-24T06:27:50;101802.53;;;26.25;100.00
42591;BME280;28218;53.342;-6.216;2023-06-24T06:30:18;101814.31;;;26.53;100.00
42591;BME280;28218;53.342;-6.216;2023-06-24T06:32:48;101806.13;;;26.64;100.00
42591;BME280;28218;53.342;-6.216;2023-06-24T06:35:16;101810.34;;;26.77;100.00
42591;BME280;28218;53.342;-6.216;2023-06-24T06:37:44;101814.06;;;26.93;100.00
42591;BME280;28218;53.342;-6.216;2023-06-24T06:40:22;101804.09;;;26.76;100.00
42591;BME280;28218;53.342;-6.216;2023-06-24T06:42:51;101811.69;;;26.41;100.00
42591;BME280;28218;53.342;-6.216;2023-06-24T06:45:19;101814.22;;;25.97;100.00
42591;BME280;28218;53.342;-6.216;2023-06-24T06:47:49;101811.78;;;25.95;100.00
42591;BME280;28218;53.342;-6.216;2023-06-24T06:50:17;101815.38;;;25.72;100.00
42591;BME280;28218;53.342;-6.216;2023-06-24T06:52:46;101816.94;;;25.40;100.00
42591;BME280;28218;53.342;-6.216;2023-06-24T06:55:14;101814.34;;;25.05;100.00
42591;BME280;28218;53.342;-6.216;2023-06-24T06:57:42;101816.28;;;24.57;100.00
42591;BME280;28218;53.342;-6.216;2023-06-24T07:00:11;101810.38;;;24.25;100.00
42591;BME280;28218;53.342;-6.216;2023-06-24T07:02:40;101815.97;;;24.00;100.00
42591;BME280;28218;53.342;-6.216;2023-06-24T07:05:10;101811.88;;;24.21;100.00
42591;BME280;28218;53.342;-6.216;2023-06-24T07:07:38;101810.28;;;24.55;100.00
42591;BME280;28218;53.342;-6.216;2023-06-24T07:10:07;101810.47;;;24.89;100.00
42591;BME280;28218;53.342;-6.216;2023-06-24T07:12:35;101809.03;;;25.21;100.00
42591;BME280;28218;53.342;-6.216;2023-06-24T07:15:04;101810.88;;;25.61;100.00
42591;BME280;28218;53.342;-6.216;2023-06-24T07:17:33;101822.34;;;25.68;100.00
42591;BME280;28218;53.342;-6.216;2023-06-24T07:20:01;101834.28;;;25.84;100.00
42591;BME280;28218;53.342;-6.216;2023-06-24T07:22:31;101834.63;;;26.05;100.00
42591;BME280;28218;53.342;-6.216;2023-06-24T07:24:59;101835.59;;;25.98;100.00
42591;BME280;28218;53.342;-6.216;2023-06-24T07:27:27;101839.13;;;25.99;100.00
42591;BME280;28218;53.342;-6.216;2023-06-24T07:29:56;101839.19;;;26.04;100.00
42591;BME280;28218;53.342;-6.216;2023-06-24T07:32:24;101839.69;;;26.01;100.00
42591;BME280;28218;53.342;-6.216;2023-06-24T07:34:52;101844.91;;;25.91;100.00
42591;BME280;28218;53.342;-6.216;2023-06-24T07:37:20;101849.41;;;25.73;100.00
42591;BME280;28218;53.342;-6.216;2023-06-24T07:39:52;101853.63;;;25.53;100.00
42591;BME280;28218;53.342;-6.216;2023-06-24T07:42:20;101858.84;;;25.31;100.00
42591;BME280;28218;53.342;-6.216;2023-06-24T07:44:49;101856.75;;;25.21;100.00
42591;BME280;28218;53.342;-6.216;2023-06-24T07:47:17;101866.16;;;24.95;100.00
42591;BME280;28218;53.342;-6.216;2023-06-24T07:49:46;101864.16;;;24.79;100.00
42591;BME280;28218;53.342;-6.216;2023-06-24T07:52:14;101872.63;;;24.70;100.00
42591;BME280;28218;53.342;-6.216;2023-06-24T07:54:43;101868.66;;;24.61;100.00
42591;BME280;28218;53.342;-6.216;2023-06-24T07:57:13;101883.63;;;24.57;100.00
42591;BME280;28218;53.342;-6.216;2023-06-24T07:59:42;101878.00;;;24.47;100.00
42591;BME280;28218;53.342;-6.216;2023-06-24T08:02:10;101884.91;;;24.43;100.00
42591;BME280;28218;53.342;-6.216;2023-06-24T08:04:38;101880.09;;;24.45;100.00
42591;BME280;28218;53.342;-6.216;2023-06-24T08:07:06;101883.50;;;24.40;100.00
42591;BME280;28218;53.342;-6.216;2023-06-24T08:09:35;101883.13;;;24.37;100.00
42591;BME280;28218;53.342;-6.216;2023-06-24T08:12:04;101885.09;;;24.30;100.00
42591;BME280;28218;53.342;-6.216;2023-06-24T08:14:34;101884.03;;;24.31;100.00
42591;BME280;28218;53.342;-6.216;2023-06-24T08:17:03;101887.41;;;24.26;100.00
42591;BME280;28218;53.342;-6.216;2023-06-24T08:19:31;101890.91;;;24.27;100.00
42591;BME280;28218;53.342;-6.216;2023-06-24T08:22:00;101892.34;;;24.29;100.00
42591;BME280;28218;53.342;-6.216;2023-06-24T08:24:28;101889.72;;;24.22;100.00
42591;BME280;28218;53.342;-6.216;2023-06-24T08:26:56;101888.72;;;24.23;100.00
42591;BME280;28218;53.342;-6.216;2023-06-24T08:29:24;101889.53;;;24.24;100.00
42591;BME280;28218;53.342;-6.216;2023-06-24T08:31:54;101894.81;;;24.31;100.00
42591;BME280;28218;53.342;-6.216;2023-06-24T08:34:22;101894.75;;;24.37;100.00
42591;BME280;28218;53.342;-6.216;2023-06-24T08:36:53;101903.84;;;24.36;100.00
42591;BME280;28218;53.342;-6.216;2023-06-24T08:39:21;101908.38;;;24.36;100.00
42591;BME280;28218;53.342;-6.216;2023-06-24T08:41:49;101916.78;;;24.28;100.00
42591;BME280;28218;53.342;-6.216;2023-06-24T08:44:17;101909.78;;;24.27;100.00
42591;BME280;28218;53.342;-6.216;2023-06-24T08:46:46;101906.38;;;24.19;100.00
42591;BME280;28218;53.342;-6.216;2023-06-24T08:49:24;101902.13;;;24.12;100.00
42591;BME280;28218;53.342;-6.216;2023-06-24T08:51:59;101911.63;;;24.14;100.00
42591;BME280;28218;53.342;-6.216;2023-06-24T08:54:28;101911.63;;;24.14;100.00
42591;BME280;28218;53.342;-6.216;2023-06-24T08:56:57;101897.34;;;24.14;100.00
42591;BME280;28218;53.342;-6.216;2023-06-24T08:59:28;101900.63;;;24.16;100.00
42591;BME280;28218;53.342;-6.216;2023-06-24T09:01:57;101903.19;;;24.11;100.00
42591;BME280;28218;53.342;-6.216;2023-06-24T09:04:26;101908.66;;;24.04;100.00
42591;BME280;28218;53.342;-6.216;2023-06-24T09:06:55;101904.13;;;24.16;100.00
42591;BME280;28218;53.342;-6.216;2023-06-24T09:09:23;101902.75;;;24.14;100.00
42591;BME280;28218;53.342;-6.216;2023-06-24T09:11:52;101900.75;;;24.21;100.00
42591;BME280;28218;53.342;-6.216;2023-06-24T09:14:21;101893.72;;;24.20;100.00
42591;BME280;28218;53.342;-6.216;2023-06-24T09:16:54;101890.72;;;24.28;100.00
42591;BME280;28218;53.342;-6.216;2023-06-24T09:19:24;101875.94;;;24.31;100.00
42591;BME280;28218;53.342;-6.216;2023-06-24T09:22:01;101889.25;;;24.44;100.00
42591;BME280;28218;53.342;-6.216;2023-06-24T09:24:30;101877.44;;;24.57;100.00
42591;BME280;28218;53.342;-6.216;2023-06-24T09:26:59;101892.44;;;24.76;100.00
42591;BME280;28218;53.342;-6.216;2023-06-24T09:29:31;101893.13;;;24.83;100.00
42591;BME280;28218;53.342;-6.216;2023-06-24T09:31:59;101885.28;;;24.82;100.00
42591;BME280;28218;53.342;-6.216;2023-06-24T09:34:28;101885.38;;;24.87;100.00
42591;BME280;28218;53.342;-6.216;2023-06-24T09:36:59;101885.16;;;25.00;100.00
42591;BME280;28218;53.342;-6.216;2023-06-24T09:39:28;101894.66;;;25.14;100.00
42591;BME280;28218;53.342;-6.216;2023-06-24T09:42:04;101896.84;;;25.29;100.00
42591;BME280;28218;53.342;-6.216;2023-06-24T09:44:33;101892.50;;;25.40;100.00
42591;BME280;28218;53.342;-6.216;2023-06-24T09:47:01;101885.66;;;25.49;100.00
42591;BME280;28218;53.342;-6.216;2023-06-24T09:49:29;101875.06;;;25.59;100.00
42591;BME280;28218;53.342;-6.216;2023-06-24T09:51:59;101887.53;;;25.60;100.00
42591;BME280;28218;53.342;-6.216;2023-06-24T09:54:30;101887.38;;;25.67;100.00
42591;BME280;28218;53.342;-6.216;2023-06-24T09:57:03;101905.72;;;25.53;100.00
42591;BME280;28218;53.342;-6.216;2023-06-24T09:59:31;101898.44;;;25.54;100.00
42591;BME280;28218;53.342;-6.216;2023-06-24T10:02:02;101899.34;;;25.59;100.00
42591;BME280;28218;53.342;-6.216;2023-06-24T10:04:32;101902.41;;;25.63;100.00
42591;BME280;28218;53.342;-6.216;2023-06-24T10:07:03;101902.03;;;25.71;100.00
42591;BME280;28218;53.342;-6.216;2023-06-24T10:09:31;101900.97;;;25.84;100.00
42591;BME280;28218;53.342;-6.216;2023-06-24T10:11:59;101899.53;;;25.81;100.00
42591;BME280;28218;53.342;-6.216;2023-06-24T10:14:28;101901.69;;;25.67;100.00
42591;BME280;28218;53.342;-6.216;2023-06-24T10:17:01;101910.28;;;25.53;100.00
42591;BME280;28218;53.342;-6.216;2023-06-24T10:19:30;101911.16;;;25.41;100.00
42591;BME280;28218;53.342;-6.216;2023-06-24T10:21:58;101904.94;;;25.29;100.00
42591;BME280;28218;53.342;-6.216;2023-06-24T10:24:32;101898.41;;;25.13;100.00
42591;BME280;28218;53.342;-6.216;2023-06-24T10:27:03;101901.00;;;25.08;100.00
42591;BME280;28218;53.342;-6.216;2023-06-24T10:29:33;101893.25;;;25.00;100.00
42591;BME280;28218;53.342;-6.216;2023-06-24T10:32:06;101893.25;;;25.00;100.00
42591;BME280;28218;53.342;-6.216;2023-06-24T10:34:39;101894.06;;;25.01;100.00
42591;BME280;28218;53.342;-6.216;2023-06-24T10:37:10;101887.84;;;25.00;100.00
42591;BME280;28218;53.342;-6.216;2023-06-24T10:39:48;101882.69;;;24.98;100.00
42591;BME280;28218;53.342;-6.216;2023-06-24T10:42:37;101871.66;;;25.00;100.00
42591;BME280;28218;53.342;-6.216;2023-06-24T10:45:19;101876.13;;;24.94;100.00
42591;BME280;28218;53.342;-6.216;2023-06-24T10:47:49;101881.28;;;24.96;100.00
42591;BME280;28218;53.342;-6.216;2023-06-24T10:50:20;101878.59;;;24.96;100.00
42591;BME280;28218;53.342;-6.216;2023-06-24T10:52:50;101874.38;;;25.00;100.00
42591;BME280;28218;53.342;-6.216;2023-06-24T10:55:24;101871.66;;;25.00;100.00
42591;BME280;28218;53.342;-6.216;2023-06-24T10:57:53;101857.00;;;25.08;100.00
42591;BME280;28218;53.342;-6.216;2023-06-24T11:00:21;101863.47;;;25.18;100.00
42591;BME280;28218;53.342;-6.216;2023-06-24T11:02:50;101868.97;;;25.12;100.00
42591;BME280;28218;53.342;-6.216;2023-06-24T11:05:18;101871.22;;;25.15;100.00
42591;BME280;28218;53.342;-6.216;2023-06-24T11:07:46;101877.25;;;25.34;100.00
42591;BME280;28218;53.342;-6.216;2023-06-24T11:10:15;101868.66;;;25.48;100.00
42591;BME280;28218;53.342;-6.216;2023-06-24T11:12:45;101870.63;;;25.53;100.00
42591;BME280;28218;53.342;-6.216;2023-06-24T11:15:14;101869.06;;;25.69;100.00
42591;BME280;28218;53.342;-6.216;2023-06-24T11:17:42;101868.22;;;25.80;100.00
42591;BME280;28218;53.342;-6.216;2023-06-24T11:20:12;101873.16;;;25.71;100.00
42591;BME280;28218;53.342;-6.216;2023-06-24T11:22:42;101869.09;;;25.57;100.00
42591;BME280;28218;53.342;-6.216;2023-06-24T11:25:18;101874.66;;;25.39;100.00
42591;BME280;28218;53.342;-6.216;2023-06-24T11:27:50;101864.34;;;25.36;100.00
42591;BME280;28218;53.342;-6.216;2023-06-24T11:30:18;101868.59;;;25.32;100.00
42591;BME280;28218;53.342;-6.216;2023-06-24T11:32:47;101863.47;;;25.18;100.00
42591;BME280;28218;53.342;-6.216;2023-06-24T11:35:17;101856.41;;;25.29;100.00
42591;BME280;28218;53.342;-6.216;2023-06-24T11:37:47;101853.22;;;25.32;100.00
42591;BME280;28218;53.342;-6.216;2023-06-24T11:40:17;101861.34;;;25.61;100.00
42591;BME280;28218;53.342;-6.216;2023-06-24T11:42:48;101857.34;;;25.92;100.00
42591;BME280;28218;53.342;-6.216;2023-06-24T11:45:20;101849.03;;;26.10;100.00
42591;BME280;28218;53.342;-6.216;2023-06-24T11:47:49;101848.22;;;26.27;100.00
42591;BME280;28218;53.342;-6.216;2023-06-24T11:50:25;101849.53;;;26.41;100.00
42591;BME280;28218;53.342;-6.216;2023-06-24T11:52:54;101839.72;;;26.52;100.00
42591;BME280;28218;53.342;-6.216;2023-06-24T11:55:23;101842.91;;;26.65;100.00
42591;BME280;28218;53.342;-6.216;2023-06-24T11:57:55;101842.63;;;26.84;100.00
42591;BME280;28218;53.342;-6.216;2023-06-24T12:00:25;101840.09;;;26.99;100.00
42591;BME280;28218;53.342;-6.216;2023-06-24T12:02:54;101842.38;;;27.07;100.00
42591;BME280;28218;53.342;-6.216;2023-06-24T12:05:24;101853.56;;;27.11;100.00
42591;BME280;28218;53.342;-6.216;2023-06-24T12:07:57;101853.03;;;27.14;100.00
42591;BME280;28218;53.342;-6.216;2023-06-24T12:10:26;101861.47;;;27.17;100.00
42591;BME280;28218;53.342;-6.216;2023-06-24T12:12:57;101852.53;;;27.17;100.00
42591;BME280;28218;53.342;-6.216;2023-06-24T12:15:27;101848.31;;;27.26;100.00
42591;BME280;28218;53.342;-6.216;2023-06-24T12:17:56;101858.88;;;27.27;100.00
42591;BME280;28218;53.342;-6.216;2023-06-24T12:20:25;101847.56;;;27.31;100.00
42591;BME280;28218;53.342;-6.216;2023-06-24T12:22:56;101837.16;;;27.44;100.00
42591;BME280;28218;53.342;-6.216;2023-06-24T12:25:24;101839.50;;;27.58;100.00
42591;BME280;28218;53.342;-6.216;2023-06-24T12:27:53;101839.00;;;27.66;100.00
42591;BME280;28218;53.342;-6.216;2023-06-24T12:30:22;101843.22;;;27.79;100.00
42591;BME280;28218;53.342;-6.216;2023-06-24T12:32:51;101829.66;;;27.73;100.00
42591;BME280;28218;53.342;-6.216;2023-06-24T12:35:19;101833.81;;;27.59;100.00
42591;BME280;28218;53.342;-6.216;2023-06-24T12:37:48;101840.03;;;27.60;100.00
42591;BME280;28218;53.342;-6.216;2023-06-24T12:40:16;101843.09;;;27.68;100.00
42591;BME280;28218;53.342;-6.216;2023-06-24T12:42:44;101839.97;;;27.76;100.00
42591;BME280;28218;53.342;-6.216;2023-06-24T12:45:13;101851.41;;;27.84;100.00
42591;BME280;28218;53.342;-6.216;2023-06-24T12:47:42;101845.47;;;27.87;100.00